sensor_id;sensor_type;location;lat;lon;timestamp;P1;durP1;ratioP1;P2;durP2;ratioP2
20415;SDS011;10367;52.202;5.996;2022-11-15T00:00:52;33.90;;;16.67;;
20415;SDS011;10367;52.202;5.996;2022-11-15T00:03:22;26.13;;;14.87;;
20415;SDS011;10367;52.202;5.996;2022-11-15T00:05:52;36.67;;;18.17;;
20415;SDS011;10367;52.202;5.996;2022-11-15T00:08:23;30.77;;;17.13;;
20415;SDS011;10367;52.202;5.996;2022-11-15T00:10:55;39.47;;;18.97;;
20415;SDS011;10367;52.202;5.996;2022-11-15T00:13:24;31.43;;;16.20;;
20415;SDS011;10367;52.202;5.996;2022-11-15T00:15:56;42.17;;;20.10;;
20415;SDS011;10367;52.202;5.996;2022-11-15T00:18:26;32.67;;;18.10;;
20415;SDS011;10367;52.202;5.996;2022-11-15T00:20:55;38.97;;;20.33;;
20415;SDS011;10367;52.202;5.996;2022-11-15T00:23:31;38.23;;;19.57;;
20415;SDS011;10367;52.202;5.996;2022-11-15T00:26:01;39.50;;;18.77;;
20415;SDS011;10367;52.202;5.996;2022-11-15T00:28:30;32.20;;;17.50;;
20415;SDS011;10367;52.202;5.996;2022-11-15T00:31:02;41.40;;;19.67;;
20415;SDS011;10367;52.202;5.996;2022-11-15T00:33:31;35.93;;;17.30;;
20415;SDS011;10367;52.202;5.996;2022-11-15T00:36:01;43.50;;;19.73;;
20415;SDS011;10367;52.202;5.996;2022-11-15T00:38:32;39.53;;;18.43;;
20415;SDS011;10367;52.202;5.996;2022-11-15T00:41:02;35.43;;;18.43;;
20415;SDS011;10367;52.202;5.996;2022-11-15T00:43:35;38.53;;;19.00;;
20415;SDS011;10367;52.202;5.996;2022-11-15T00:46:07;34.17;;;17.47;;
20415;SDS011;10367;52.202;5.996;2022-11-15T00:48:36;41.97;;;17.97;;
20415;SDS011;10367;52.202;5.996;2022-11-15T00:51:05;38.83;;;18.73;;
20415;SDS011;10367;52.202;5.996;2022-11-15T00:53:35;37.73;;;17.20;;
20415;SDS011;10367;52.202;5.996;2022-11-15T00:56:04;31.53;;;17.80;;
20415;SDS011;10367;52.202;5.996;2022-11-15T00:58:33;40.40;;;20.13;;
20415;SDS011;10367;52.202;5.996;2022-11-15T01:01:06;39.17;;;16.90;;
20415;SDS011;10367;52.202;5.996;2022-11-15T01:03:37;50.50;;;20.37;;
20415;SDS011;10367;52.202;5.996;2022-11-15T01:06:07;39.23;;;19.23;;
20415;SDS011;10367;52.202;5.996;2022-11-15T01:08:37;37.53;;;18.43;;
20415;SDS011;10367;52.202;5.996;2022-11-15T01:11:07;37.73;;;18.07;;
20415;SDS011;10367;52.202;5.996;2022-11-15T01:13:38;39.53;;;20.40;;
20415;SDS011;10367;52.202;5.996;2022-11-15T01:16:08;39.37;;;19.10;;
20415;SDS011;10367;52.202;5.996;2022-11-15T01:18:40;44.13;;;19.33;;
20415;SDS011;10367;52.202;5.996;2022-11-15T01:21:09;48.50;;;19.43;;
20415;SDS011;10367;52.202;5.996;2022-11-15T01:23:41;36.63;;;19.23;;
20415;SDS011;10367;52.202;5.996;2022-11-15T01:26:10;33.87;;;16.37;;
20415;SDS011;10367;52.202;5.996;2022-11-15T01:28:41;48.63;;;21.63;;
20415;SDS011;10367;52.202;5.996;2022-11-15T01:31:12;45.07;;;20.53;;
20415;SDS011;10367;52.202;5.996;2022-11-15T01:33:42;40.30;;;20.40;;
20415;SDS011;10367;52.202;5.996;2022-11-15T01:36:11;31.57;;;16.17;;
20415;SDS011;10367;52.202;5.996;2022-11-15T01:38:43;48.73;;;19.97;;
20415;SDS011;10367;52.202;5.996;2022-11-15T01:41:16;41.00;;;19.40;;
20415;SDS011;10367;52.202;5.996;2022-11-15T01:43:46;38.40;;;17.40;;
20415;SDS011;10367;52.202;5.996;2022-11-15T01:46:22;38.73;;;18.30;;
20415;SDS011;10367;52.202;5.996;2022-11-15T01:48:55;33.80;;;18.17;;
20415;SDS011;10367;52.202;5.996;2022-11-15T01:51:29;33.23;;;18.47;;
20415;SDS011;10367;52.202;5.996;2022-11-15T01:54:06;39.33;;;21.00;;
20415;SDS011;10367;52.202;5.996;2022-11-15T01:56:38;34.53;;;18.90;;
20415;SDS011;10367;52.202;5.996;2022-11-15T01:59:11;37.03;;;19.10;;
20415;SDS011;10367;52.202;5.996;2022-11-15T02:01:40;34.30;;;18.47;;
20415;SDS011;10367;52.202;5.996;2022-11-15T02:04:11;36.27;;;19.93;;
20415;SDS011;10367;52.202;5.996;2022-11-15T02:06:44;41.20;;;20.77;;
20415;SDS011;10367;52.202;5.996;2022-11-15T02:09:18;34.17;;;19.13;;
20415;SDS011;10367;52.202;5.996;2022-11-15T02:11:46;34.37;;;19.53;;
20415;SDS011;10367;52.202;5.996;2022-11-15T02:14:18;35.83;;;19.63;;
20415;SDS011;10367;52.202;5.996;2022-11-15T02:16:50;38.90;;;19.87;;
20415;SDS011;10367;52.202;5.996;2022-11-15T02:19:29;35.97;;;20.00;;
20415;SDS011;10367;52.202;5.996;2022-11-15T02:22:10;41.00;;;18.17;;
20415;SDS011;10367;52.202;5.996;2022-11-15T02:25:02;44.27;;;19.10;;
20415;SDS011;10367;52.202;5.996;2022-11-15T02:30:44;31.70;;;19.90;;
20415;SDS011;10367;52.202;5.996;2022-11-15T02:33:21;46.53;;;22.17;;
20415;SDS011;10367;52.202;5.996;2022-11-15T02:35:57;39.10;;;19.93;;
20415;SDS011;10367;52.202;5.996;2022-11-15T02:38:31;40.67;;;20.17;;
20415;SDS011;10367;52.202;5.996;2022-11-15T02:41:06;32.40;;;18.13;;
20415;SDS011;10367;52.202;5.996;2022-11-15T02:43:40;34.50;;;18.43;;
20415;SDS011;10367;52.202;5.996;2022-11-15T02:46:27;37.70;;;20.43;;
20415;SDS011;10367;52.202;5.996;2022-11-15T02:49:18;25.47;;;15.40;;
20415;SDS011;10367;52.202;5.996;2022-11-15T02:51:48;32.93;;;19.27;;
20415;SDS011;10367;52.202;5.996;2022-11-15T02:54:20;41.23;;;21.20;;
20415;SDS011;10367;52.202;5.996;2022-11-15T02:56:51;33.47;;;19.37;;
20415;SDS011;10367;52.202;5.996;2022-11-15T02:59:29;37.07;;;18.53;;
20415;SDS011;10367;52.202;5.996;2022-11-15T03:02:31;29.30;;;17.90;;
20415;SDS011;10367;52.202;5.996;2022-11-15T03:05:13;40.80;;;19.97;;
20415;SDS011;10367;52.202;5.996;2022-11-15T03:07:50;41.13;;;19.87;;
20415;SDS011;10367;52.202;5.996;2022-11-15T03:10:30;34.63;;;18.87;;
20415;SDS011;10367;52.202;5.996;2022-11-15T03:13:12;39.63;;;21.00;;
20415;SDS011;10367;52.202;5.996;2022-11-15T03:15:50;36.07;;;20.93;;
20415;SDS011;10367;52.202;5.996;2022-11-15T03:18:27;33.83;;;19.20;;
20415;SDS011;10367;52.202;5.996;2022-11-15T03:21:01;34.37;;;18.77;;
20415;SDS011;10367;52.202;5.996;2022-11-15T03:23:37;42.70;;;21.27;;
20415;SDS011;10367;52.202;5.996;2022-11-15T03:26:09;33.73;;;19.17;;
20415;SDS011;10367;52.202;5.996;2022-11-15T03:28:44;38.70;;;21.60;;
20415;SDS011;10367;52.202;5.996;2022-11-15T03:31:18;27.73;;;16.70;;
20415;SDS011;10367;52.202;5.996;2022-11-15T03:34:18;32.37;;;18.17;;
20415;SDS011;10367;52.202;5.996;2022-11-15T03:36:50;32.80;;;19.07;;
20415;SDS011;10367;52.202;5.996;2022-11-15T03:39:20;34.43;;;18.53;;
20415;SDS011;10367;52.202;5.996;2022-11-15T03:41:51;40.80;;;22.13;;
20415;SDS011;10367;52.202;5.996;2022-11-15T03:44:33;39.50;;;20.73;;
20415;SDS011;10367;52.202;5.996;2022-11-15T03:47:07;42.53;;;19.37;;
20415;SDS011;10367;52.202;5.996;2022-11-15T03:49:42;34.03;;;20.20;;
20415;SDS011;10367;52.202;5.996;2022-11-15T03:52:16;30.70;;;17.80;;
20415;SDS011;10367;52.202;5.996;2022-11-15T03:54:47;32.10;;;19.00;;
20415;SDS011;10367;52.202;5.996;2022-11-15T03:57:21;30.93;;;19.07;;
20415;SDS011;10367;52.202;5.996;2022-11-15T03:59:50;31.40;;;18.47;;
20415;SDS011;10367;52.202;5.996;2022-11-15T04:02:19;26.97;;;17.93;;
20415;SDS011;10367;52.202;5.996;2022-11-15T04:04:50;37.57;;;20.60;;
20415;SDS011;10367;52.202;5.996;2022-11-15T04:07:19;36.70;;;19.80;;
20415;SDS011;10367;52.202;5.996;2022-11-15T04:09:48;33.53;;;19.90;;
20415;SDS011;10367;52.202;5.996;2022-11-15T04:12:33;39.17;;;21.87;;
20415;SDS011;10367;52.202;5.996;2022-11-15T04:15:04;34.17;;;20.20;;
20415;SDS011;10367;52.202;5.996;2022-11-15T04:17:35;35.20;;;18.87;;
20415;SDS011;10367;52.202;5.996;2022-11-15T04:20:08;33.10;;;18.33;;
20415;SDS011;10367;52.202;5.996;2022-11-15T04:22:57;36.00;;;21.37;;
20415;SDS011;10367;52.202;5.996;2022-11-15T04:25:45;42.03;;;20.53;;
20415;SDS011;10367;52.202;5.996;2022-11-15T04:28:17;35.30;;;20.20;;
20415;SDS011;10367;52.202;5.996;2022-11-15T04:30:47;35.57;;;20.03;;
20415;SDS011;10367;52.202;5.996;2022-11-15T04:33:18;30.03;;;18.67;;
20415;SDS011;10367;52.202;5.996;2022-11-15T04:35:49;36.73;;;21.00;;
20415;SDS011;10367;52.202;5.996;2022-11-15T04:38:32;36.23;;;20.63;;
20415;SDS011;10367;52.202;5.996;2022-11-15T04:41:01;37.13;;;19.50;;
20415;SDS011;10367;52.202;5.996;2022-11-15T04:43:30;33.87;;;18.93;;
20415;SDS011;10367;52.202;5.996;2022-11-15T04:45:59;30.03;;;18.67;;
20415;SDS011;10367;52.202;5.996;2022-11-15T04:48:28;35.40;;;19.90;;
20415;SDS011;10367;52.202;5.996;2022-11-15T04:50:58;31.33;;;19.40;;
20415;SDS011;10367;52.202;5.996;2022-11-15T04:53:27;42.73;;;20.43;;
20415;SDS011;10367;52.202;5.996;2022-11-15T04:55:56;33.60;;;21.43;;
20415;SDS011;10367;52.202;5.996;2022-11-15T04:58:25;38.73;;;20.30;;
20415;SDS011;10367;52.202;5.996;2022-11-15T05:00:54;29.77;;;19.10;;
20415;SDS011;10367;52.202;5.996;2022-11-15T05:03:23;39.37;;;20.33;;
20415;SDS011;10367;52.202;5.996;2022-11-15T05:06:10;27.87;;;17.60;;
20415;SDS011;10367;52.202;5.996;2022-11-15T05:08:39;34.07;;;20.27;;
20415;SDS011;10367;52.202;5.996;2022-11-15T05:11:07;31.27;;;18.37;;
20415;SDS011;10367;52.202;5.996;2022-11-15T05:13:36;34.97;;;18.87;;
20415;SDS011;10367;52.202;5.996;2022-11-15T05:16:05;34.73;;;20.93;;
20415;SDS011;10367;52.202;5.996;2022-11-15T05:18:34;31.43;;;18.77;;
20415;SDS011;10367;52.202;5.996;2022-11-15T05:21:03;40.43;;;19.83;;
20415;SDS011;10367;52.202;5.996;2022-11-15T05:23:34;37.50;;;21.13;;
20415;SDS011;10367;52.202;5.996;2022-11-15T05:26:03;36.33;;;20.93;;
20415;SDS011;10367;52.202;5.996;2022-11-15T05:28:35;38.83;;;21.60;;
20415;SDS011;10367;52.202;5.996;2022-11-15T05:31:06;32.67;;;20.20;;
20415;SDS011;10367;52.202;5.996;2022-11-15T05:33:35;28.37;;;18.00;;
20415;SDS011;10367;52.202;5.996;2022-11-15T05:36:07;29.27;;;18.33;;
20415;SDS011;10367;52.202;5.996;2022-11-15T05:38:41;39.93;;;20.80;;
20415;SDS011;10367;52.202;5.996;2022-11-15T05:41:10;32.33;;;20.53;;
20415;SDS011;10367;52.202;5.996;2022-11-15T05:43:39;32.63;;;19.23;;
20415;SDS011;10367;52.202;5.996;2022-11-15T05:46:10;34.33;;;18.87;;
20415;SDS011;10367;52.202;5.996;2022-11-15T05:48:40;32.97;;;19.73;;
20415;SDS011;10367;52.202;5.996;2022-11-15T05:51:12;39.97;;;21.60;;
20415;SDS011;10367;52.202;5.996;2022-11-15T05:53:43;46.53;;;26.13;;
20415;SDS011;10367;52.202;5.996;2022-11-15T05:56:13;28.60;;;19.63;;
20415;SDS011;10367;52.202;5.996;2022-11-15T05:58:42;39.00;;;22.13;;
20415;SDS011;10367;52.202;5.996;2022-11-15T06:01:11;30.60;;;18.53;;
20415;SDS011;10367;52.202;5.996;2022-11-15T06:03:40;29.20;;;18.77;;
20415;SDS011;10367;52.202;5.996;2022-11-15T06:06:09;31.70;;;19.30;;
20415;SDS011;10367;52.202;5.996;2022-11-15T06:08:44;35.63;;;21.30;;
20415;SDS011;10367;52.202;5.996;2022-11-15T06:11:14;30.27;;;18.17;;
20415;SDS011;10367;52.202;5.996;2022-11-15T06:13:43;32.10;;;18.43;;
20415;SDS011;10367;52.202;5.996;2022-11-15T06:16:12;34.07;;;20.90;;
20415;SDS011;10367;52.202;5.996;2022-11-15T06:18:41;35.67;;;19.43;;
20415;SDS011;10367;52.202;5.996;2022-11-15T06:21:10;32.20;;;18.33;;
20415;SDS011;10367;52.202;5.996;2022-11-15T06:23:41;38.13;;;21.40;;
20415;SDS011;10367;52.202;5.996;2022-11-15T06:26:11;38.20;;;21.10;;
20415;SDS011;10367;52.202;5.996;2022-11-15T06:28:40;39.63;;;22.33;;
20415;SDS011;10367;52.202;5.996;2022-11-15T06:31:09;36.13;;;21.03;;
20415;SDS011;10367;52.202;5.996;2022-11-15T06:33:39;40.87;;;22.53;;
20415;SDS011;10367;52.202;5.996;2022-11-15T06:36:08;37.87;;;20.70;;
20415;SDS011;10367;52.202;5.996;2022-11-15T06:38:43;32.77;;;19.90;;
20415;SDS011;10367;52.202;5.996;2022-11-15T06:41:14;39.17;;;21.23;;
20415;SDS011;10367;52.202;5.996;2022-11-15T06:43:44;36.10;;;20.67;;
20415;SDS011;10367;52.202;5.996;2022-11-15T06:46:12;26.93;;;17.77;;
20415;SDS011;10367;52.202;5.996;2022-11-15T06:48:41;30.53;;;20.07;;
20415;SDS011;10367;52.202;5.996;2022-11-15T06:51:10;31.83;;;18.67;;
20415;SDS011;10367;52.202;5.996;2022-11-15T06:53:38;37.10;;;21.57;;
20415;SDS011;10367;52.202;5.996;2022-11-15T06:56:07;36.97;;;20.87;;
20415;SDS011;10367;52.202;5.996;2022-11-15T06:58:38;39.03;;;21.27;;
20415;SDS011;10367;52.202;5.996;2022-11-15T07:01:07;30.10;;;18.97;;
20415;SDS011;10367;52.202;5.996;2022-11-15T07:03:37;32.10;;;20.33;;
20415;SDS011;10367;52.202;5.996;2022-11-15T07:06:08;49.77;;;24.43;;
20415;SDS011;10367;52.202;5.996;2022-11-15T07:08:36;48.57;;;24.03;;
20415;SDS011;10367;52.202;5.996;2022-11-15T07:11:06;36.23;;;20.87;;
20415;SDS011;10367;52.202;5.996;2022-11-15T07:13:35;39.93;;;21.37;;
20415;SDS011;10367;52.202;5.996;2022-11-15T07:16:06;36.27;;;21.37;;
20415;SDS011;10367;52.202;5.996;2022-11-15T07:18:37;48.00;;;25.10;;
20415;SDS011;10367;52.202;5.996;2022-11-15T07:21:07;30.87;;;18.93;;
20415;SDS011;10367;52.202;5.996;2022-11-15T07:23:37;40.57;;;21.67;;
20415;SDS011;10367;52.202;5.996;2022-11-15T07:26:07;40.73;;;23.00;;
20415;SDS011;10367;52.202;5.996;2022-11-15T07:28:37;31.77;;;19.83;;
20415;SDS011;10367;52.202;5.996;2022-11-15T07:31:06;27.87;;;19.53;;
20415;SDS011;10367;52.202;5.996;2022-11-15T07:33:36;38.73;;;20.10;;
20415;SDS011;10367;52.202;5.996;2022-11-15T07:36:05;37.60;;;19.87;;
20415;SDS011;10367;52.202;5.996;2022-11-15T07:38:35;31.40;;;19.40;;
20415;SDS011;10367;52.202;5.996;2022-11-15T07:41:08;29.07;;;18.07;;
20415;SDS011;10367;52.202;5.996;2022-11-15T07:43:57;33.50;;;19.60;;
20415;SDS011;10367;52.202;5.996;2022-11-15T07:46:35;38.23;;;21.10;;
20415;SDS011;10367;52.202;5.996;2022-11-15T07:49:14;38.83;;;22.17;;
20415;SDS011;10367;52.202;5.996;2022-11-15T07:51:42;37.23;;;20.30;;
20415;SDS011;10367;52.202;5.996;2022-11-15T07:54:12;35.03;;;22.30;;
20415;SDS011;10367;52.202;5.996;2022-11-15T07:56:41;30.93;;;19.30;;
20415;SDS011;10367;52.202;5.996;2022-11-15T07:59:11;35.30;;;19.90;;
20415;SDS011;10367;52.202;5.996;2022-11-15T08:01:39;30.80;;;19.80;;
20415;SDS011;10367;52.202;5.996;2022-11-15T08:04:09;39.83;;;21.53;;
20415;SDS011;10367;52.202;5.996;2022-11-15T08:06:39;38.07;;;21.63;;
20415;SDS011;10367;52.202;5.996;2022-11-15T08:09:07;35.87;;;21.33;;
20415;SDS011;10367;52.202;5.996;2022-11-15T08:11:36;36.43;;;20.53;;
20415;SDS011;10367;52.202;5.996;2022-11-15T08:14:04;33.27;;;20.40;;
20415;SDS011;10367;52.202;5.996;2022-11-15T08:16:34;32.93;;;20.93;;
20415;SDS011;10367;52.202;5.996;2022-11-15T08:19:03;37.37;;;20.87;;
20415;SDS011;10367;52.202;5.996;2022-11-15T08:21:32;38.47;;;23.03;;
20415;SDS011;10367;52.202;5.996;2022-11-15T08:24:01;32.77;;;20.33;;
20415;SDS011;10367;52.202;5.996;2022-11-15T08:26:30;24.10;;;16.20;;
20415;SDS011;10367;52.202;5.996;2022-11-15T08:28:59;33.90;;;19.10;;
20415;SDS011;10367;52.202;5.996;2022-11-15T08:31:28;31.83;;;19.87;;
20415;SDS011;10367;52.202;5.996;2022-11-15T08:33:58;32.83;;;20.03;;
20415;SDS011;10367;52.202;5.996;2022-11-15T08:36:26;30.50;;;17.83;;
20415;SDS011;10367;52.202;5.996;2022-11-15T08:39:09;30.67;;;20.53;;
20415;SDS011;10367;52.202;5.996;2022-11-15T08:41:38;24.70;;;18.17;;
20415;SDS011;10367;52.202;5.996;2022-11-15T08:44:07;29.27;;;19.53;;
20415;SDS011;10367;52.202;5.996;2022-11-15T08:46:36;26.40;;;17.90;;
20415;SDS011;10367;52.202;5.996;2022-11-15T08:49:06;20.17;;;16.13;;
20415;SDS011;10367;52.202;5.996;2022-11-15T08:51:35;31.63;;;19.20;;
20415;SDS011;10367;52.202;5.996;2022-11-15T08:54:03;26.53;;;18.57;;
20415;SDS011;10367;52.202;5.996;2022-11-15T08:56:32;24.83;;;16.93;;
20415;SDS011;10367;52.202;5.996;2022-11-15T08:59:01;27.40;;;18.57;;
20415;SDS011;10367;52.202;5.996;2022-11-15T09:01:30;25.33;;;17.93;;
20415;SDS011;10367;52.202;5.996;2022-11-15T09:03:59;31.83;;;20.87;;
20415;SDS011;10367;52.202;5.996;2022-11-15T09:06:29;24.23;;;18.30;;
20415;SDS011;10367;52.202;5.996;2022-11-15T09:08:59;27.80;;;19.10;;
20415;SDS011;10367;52.202;5.996;2022-11-15T09:11:28;24.50;;;15.37;;
20415;SDS011;10367;52.202;5.996;2022-11-15T09:13:57;31.97;;;18.07;;
20415;SDS011;10367;52.202;5.996;2022-11-15T09:16:27;29.70;;;18.10;;
20415;SDS011;10367;52.202;5.996;2022-11-15T09:18:55;28.27;;;18.67;;
20415;SDS011;10367;52.202;5.996;2022-11-15T09:21:24;24.53;;;17.53;;
20415;SDS011;10367;52.202;5.996;2022-11-15T09:23:54;29.73;;;18.47;;
20415;SDS011;10367;52.202;5.996;2022-11-15T09:26:23;24.43;;;17.63;;
20415;SDS011;10367;52.202;5.996;2022-11-15T09:28:52;29.43;;;19.50;;
20415;SDS011;10367;52.202;5.996;2022-11-15T09:31:21;28.10;;;17.10;;
20415;SDS011;10367;52.202;5.996;2022-11-15T09:33:50;20.57;;;15.60;;
20415;SDS011;10367;52.202;5.996;2022-11-15T09:36:18;29.93;;;17.77;;
20415;SDS011;10367;52.202;5.996;2022-11-15T09:38:48;23.07;;;16.37;;
20415;SDS011;10367;52.202;5.996;2022-11-15T09:41:36;25.00;;;17.37;;
20415;SDS011;10367;52.202;5.996;2022-11-15T09:44:24;24.00;;;19.00;;
20415;SDS011;10367;52.202;5.996;2022-11-15T09:47:10;26.93;;;17.93;;
20415;SDS011;10367;52.202;5.996;2022-11-15T09:50:00;32.87;;;20.60;;
20415;SDS011;10367;52.202;5.996;2022-11-15T09:52:35;27.70;;;18.37;;
20415;SDS011;10367;52.202;5.996;2022-11-15T09:55:07;26.47;;;18.83;;
20415;SDS011;10367;52.202;5.996;2022-11-15T09:57:41;23.40;;;17.67;;
20415;SDS011;10367;52.202;5.996;2022-11-15T10:00:19;26.30;;;16.70;;
20415;SDS011;10367;52.202;5.996;2022-11-15T10:03:11;19.80;;;15.10;;
20415;SDS011;10367;52.202;5.996;2022-11-15T10:05:42;24.60;;;17.30;;
20415;SDS011;10367;52.202;5.996;2022-11-15T10:08:17;20.77;;;16.67;;
20415;SDS011;10367;52.202;5.996;2022-11-15T10:10:58;20.23;;;15.87;;
20415;SDS011;10367;52.202;5.996;2022-11-15T10:13:50;18.17;;;15.50;;
20415;SDS011;10367;52.202;5.996;2022-11-15T10:19:31;24.50;;;15.93;;
20415;SDS011;10367;52.202;5.996;2022-11-15T10:22:12;19.87;;;16.60;;
20415;SDS011;10367;52.202;5.996;2022-11-15T10:24:48;17.20;;;14.17;;
20415;SDS011;10367;52.202;5.996;2022-11-15T10:27:20;18.13;;;15.03;;
20415;SDS011;10367;52.202;5.996;2022-11-15T10:29:50;19.90;;;16.27;;
20415;SDS011;10367;52.202;5.996;2022-11-15T10:32:20;16.97;;;15.10;;
20415;SDS011;10367;52.202;5.996;2022-11-15T10:34:49;19.20;;;15.73;;
20415;SDS011;10367;52.202;5.996;2022-11-15T10:37:26;17.23;;;15.37;;
20415;SDS011;10367;52.202;5.996;2022-11-15T10:40:04;23.30;;;17.43;;
20415;SDS011;10367;52.202;5.996;2022-11-15T10:42:34;19.63;;;16.23;;
20415;SDS011;10367;52.202;5.996;2022-11-15T10:45:08;20.10;;;16.47;;
20415;SDS011;10367;52.202;5.996;2022-11-15T10:47:51;22.20;;;15.47;;
20415;SDS011;10367;52.202;5.996;2022-11-15T10:50:27;16.37;;;14.57;;
20415;SDS011;10367;52.202;5.996;2022-11-15T10:52:57;20.93;;;17.03;;
20415;SDS011;10367;52.202;5.996;2022-11-15T10:55:29;22.43;;;15.47;;
20415;SDS011;10367;52.202;5.996;2022-11-15T10:58:02;21.23;;;16.13;;
20415;SDS011;10367;52.202;5.996;2022-11-15T11:00:35;18.97;;;14.63;;
20415;SDS011;10367;52.202;5.996;2022-11-15T11:03:06;21.07;;;14.80;;
20415;SDS011;10367;52.202;5.996;2022-11-15T11:06:08;16.67;;;14.27;;
20415;SDS011;10367;52.202;5.996;2022-11-15T11:08:39;19.67;;;15.13;;
20415;SDS011;10367;52.202;5.996;2022-11-15T11:11:08;16.03;;;14.30;;
20415;SDS011;10367;52.202;5.996;2022-11-15T11:13:37;14.63;;;13.20;;
20415;SDS011;10367;52.202;5.996;2022-11-15T11:16:18;20.93;;;15.43;;
20415;SDS011;10367;52.202;5.996;2022-11-15T11:19:08;15.57;;;13.93;;
20415;SDS011;10367;52.202;5.996;2022-11-15T11:21:59;15.53;;;13.70;;
20415;SDS011;10367;52.202;5.996;2022-11-15T11:24:35;15.03;;;13.47;;
20415;SDS011;10367;52.202;5.996;2022-11-15T11:27:13;15.20;;;13.67;;
20415;SDS011;10367;52.202;5.996;2022-11-15T11:29:54;14.13;;;12.30;;
20415;SDS011;10367;52.202;5.996;2022-11-15T11:32:33;14.60;;;13.20;;
20415;SDS011;10367;52.202;5.996;2022-11-15T11:35:11;13.97;;;12.67;;
20415;SDS011;10367;52.202;5.996;2022-11-15T11:37:46;14.03;;;12.47;;
20415;SDS011;10367;52.202;5.996;2022-11-15T11:40:25;14.17;;;12.90;;
20415;SDS011;10367;52.202;5.996;2022-11-15T11:42:59;16.43;;;14.13;;
20415;SDS011;10367;52.202;5.996;2022-11-15T11:48:42;15.07;;;13.57;;
20415;SDS011;10367;52.202;5.996;2022-11-15T11:51:15;14.97;;;13.40;;
20415;SDS011;10367;52.202;5.996;2022-11-15T11:53:49;13.03;;;11.93;;
20415;SDS011;10367;52.202;5.996;2022-11-15T11:56:25;19.20;;;15.10;;
20415;SDS011;10367;52.202;5.996;2022-11-15T11:58:57;15.53;;;14.00;;
20415;SDS011;10367;52.202;5.996;2022-11-15T12:01:34;14.07;;;12.77;;
20415;SDS011;10367;52.202;5.996;2022-11-15T12:04:09;19.87;;;15.70;;
20415;SDS011;10367;52.202;5.996;2022-11-15T12:06:45;13.17;;;11.73;;
20415;SDS011;10367;52.202;5.996;2022-11-15T12:09:19;12.57;;;11.67;;
20415;SDS011;10367;52.202;5.996;2022-11-15T12:11:54;16.37;;;14.07;;
20415;SDS011;10367;52.202;5.996;2022-11-15T12:14:30;14.57;;;13.27;;
20415;SDS011;10367;52.202;5.996;2022-11-15T12:17:02;17.43;;;14.10;;
20415;SDS011;10367;52.202;5.996;2022-11-15T12:19:32;13.90;;;12.70;;
20415;SDS011;10367;52.202;5.996;2022-11-15T12:22:03;14.13;;;12.67;;
20415;SDS011;10367;52.202;5.996;2022-11-15T12:24:37;14.00;;;12.07;;
20415;SDS011;10367;52.202;5.996;2022-11-15T12:27:12;12.87;;;11.80;;
20415;SDS011;10367;52.202;5.996;2022-11-15T12:29:52;17.00;;;13.77;;
20415;SDS011;10367;52.202;5.996;2022-11-15T12:32:25;15.50;;;12.07;;
20415;SDS011;10367;52.202;5.996;2022-11-15T12:34:58;15.73;;;13.77;;
20415;SDS011;10367;52.202;5.996;2022-11-15T12:40:27;14.67;;;13.07;;
20415;SDS011;10367;52.202;5.996;2022-11-15T12:43:07;15.53;;;14.03;;
20415;SDS011;10367;52.202;5.996;2022-11-15T12:52:13;13.03;;;11.90;;
20415;SDS011;10367;52.202;5.996;2022-11-15T12:55:02;12.20;;;11.13;;
20415;SDS011;10367;52.202;5.996;2022-11-15T12:57:58;17.40;;;14.70;;
20415;SDS011;10367;52.202;5.996;2022-11-15T13:00:56;15.03;;;13.27;;
20415;SDS011;10367;52.202;5.996;2022-11-15T13:03:25;14.17;;;12.77;;
20415;SDS011;10367;52.202;5.996;2022-11-15T13:05:57;13.83;;;12.37;;
20415;SDS011;10367;52.202;5.996;2022-11-15T13:08:39;12.63;;;11.47;;
20415;SDS011;10367;52.202;5.996;2022-11-15T13:17:19;15.47;;;13.83;;
20415;SDS011;10367;52.202;5.996;2022-11-15T13:19:59;14.07;;;12.67;;
20415;SDS011;10367;52.202;5.996;2022-11-15T13:22:38;14.07;;;12.67;;
20415;SDS011;10367;52.202;5.996;2022-11-15T13:28:29;15.60;;;12.60;;
20415;SDS011;10367;52.202;5.996;2022-11-15T13:31:01;19.67;;;14.47;;
20415;SDS011;10367;52.202;5.996;2022-11-15T13:33:48;13.30;;;12.00;;
20415;SDS011;10367;52.202;5.996;2022-11-15T13:36:18;18.50;;;12.00;;
20415;SDS011;10367;52.202;5.996;2022-11-15T13:38:56;11.87;;;11.03;;
20415;SDS011;10367;52.202;5.996;2022-11-15T13:41:28;13.50;;;12.27;;
20415;SDS011;10367;52.202;5.996;2022-11-15T13:43:59;14.17;;;12.80;;
20415;SDS011;10367;52.202;5.996;2022-11-15T13:46:29;13.53;;;12.30;;
20415;SDS011;10367;52.202;5.996;2022-11-15T13:48:59;14.53;;;12.63;;
20415;SDS011;10367;52.202;5.996;2022-11-15T13:51:32;13.43;;;12.07;;
20415;SDS011;10367;52.202;5.996;2022-11-15T13:54:07;17.70;;;14.57;;
20415;SDS011;10367;52.202;5.996;2022-11-15T13:56:44;11.13;;;10.30;;
20415;SDS011;10367;52.202;5.996;2022-11-15T13:59:17;14.30;;;12.87;;
20415;SDS011;10367;52.202;5.996;2022-11-15T14:01:50;12.40;;;11.30;;
20415;SDS011;10367;52.202;5.996;2022-11-15T14:04:20;13.53;;;12.20;;
20415;SDS011;10367;52.202;5.996;2022-11-15T14:06:52;12.13;;;11.20;;
20415;SDS011;10367;52.202;5.996;2022-11-15T14:12:25;15.23;;;11.63;;
20415;SDS011;10367;52.202;5.996;2022-11-15T14:14:58;13.50;;;12.10;;
20415;SDS011;10367;52.202;5.996;2022-11-15T14:17:36;13.47;;;12.17;;
20415;SDS011;10367;52.202;5.996;2022-11-15T14:20:19;14.03;;;12.60;;
20415;SDS011;10367;52.202;5.996;2022-11-15T14:22:54;14.27;;;12.87;;
20415;SDS011;10367;52.202;5.996;2022-11-15T14:25:24;13.60;;;11.67;;
20415;SDS011;10367;52.202;5.996;2022-11-15T14:31:02;13.13;;;11.77;;
20415;SDS011;10367;52.202;5.996;2022-11-15T14:33:39;13.30;;;11.63;;
20415;SDS011;10367;52.202;5.996;2022-11-15T14:36:11;13.17;;;11.83;;
20415;SDS011;10367;52.202;5.996;2022-11-15T14:38:41;11.73;;;10.73;;
20415;SDS011;10367;52.202;5.996;2022-11-15T14:43:48;12.23;;;11.13;;
20415;SDS011;10367;52.202;5.996;2022-11-15T14:46:21;11.97;;;10.87;;
20415;SDS011;10367;52.202;5.996;2022-11-15T14:48:50;15.57;;;12.17;;
20415;SDS011;10367;52.202;5.996;2022-11-15T14:51:19;12.17;;;11.17;;
20415;SDS011;10367;52.202;5.996;2022-11-15T14:53:48;12.17;;;11.17;;
20415;SDS011;10367;52.202;5.996;2022-11-15T14:56:17;12.57;;;11.37;;
20415;SDS011;10367;52.202;5.996;2022-11-15T14:58:47;11.27;;;10.33;;
20415;SDS011;10367;52.202;5.996;2022-11-15T15:01:17;12.27;;;11.17;;
20415;SDS011;10367;52.202;5.996;2022-11-15T15:03:50;12.77;;;11.40;;
20415;SDS011;10367;52.202;5.996;2022-11-15T15:06:20;11.90;;;10.80;;
20415;SDS011;10367;52.202;5.996;2022-11-15T15:08:50;12.27;;;11.13;;
20415;SDS011;10367;52.202;5.996;2022-11-15T15:11:19;12.87;;;11.67;;
20415;SDS011;10367;52.202;5.996;2022-11-15T15:13:50;12.70;;;11.43;;
20415;SDS011;10367;52.202;5.996;2022-11-15T15:16:21;15.93;;;12.27;;
20415;SDS011;10367;52.202;5.996;2022-11-15T15:18:50;12.83;;;11.37;;
20415;SDS011;10367;52.202;5.996;2022-11-15T15:21:20;13.20;;;11.90;;
20415;SDS011;10367;52.202;5.996;2022-11-15T15:23:50;14.50;;;10.77;;
20415;SDS011;10367;52.202;5.996;2022-11-15T15:26:21;15.57;;;12.60;;
20415;SDS011;10367;52.202;5.996;2022-11-15T15:28:50;12.67;;;11.47;;
20415;SDS011;10367;52.202;5.996;2022-11-15T15:31:21;15.20;;;11.93;;